createdAt,value
2018-02-27T00:02:29.154Z,12.48
2018-02-27T00:05:08.696Z,12.27
2018-02-27T00:07:47.596Z,12.25
2018-02-27T00:10:28.058Z,10.02
2018-02-27T00:13:07.631Z,18.02
2018-02-27T00:15:47.084Z,10.45
2018-02-27T00:18:25.504Z,11.85
2018-02-27T00:21:04.037Z,12.80
2018-02-27T00:23:42.603Z,13.25
2018-02-27T00:26:21.208Z,12.85
2018-02-27T00:29:02.798Z,13.45
2018-02-27T00:31:41.183Z,12.43
2018-02-27T00:34:19.547Z,11.12
2018-02-27T00:36:58.092Z,10.23
2018-02-27T00:39:36.301Z,11.98
2018-02-27T00:42:14.609Z,11.25
2018-02-27T00:44:55.086Z,11.15
2018-02-27T00:47:33.965Z,16.62
2018-02-27T00:50:15.994Z,10.52
2018-02-27T00:52:58.842Z,13.60
2018-02-27T00:55:42.025Z,10.90
2018-02-27T00:58:21.757Z,8.50
2018-02-27T01:01:06.263Z,10.02
2018-02-27T01:03:46.798Z,14.52
2018-02-27T01:06:26.244Z,9.98
2018-02-27T01:09:08.614Z,14.13
2018-02-27T01:11:49.818Z,8.50
2018-02-27T01:14:32.683Z,10.18
2018-02-27T01:20:01.998Z,13.40
2018-02-27T01:22:44.232Z,13.23
2018-02-27T01:25:22.803Z,19.17
2018-02-27T01:28:01.103Z,14.10
2018-02-27T01:30:40.545Z,18.58
2018-02-27T01:33:20.214Z,17.30
2018-02-27T01:35:59.776Z,19.17
2018-02-27T01:38:38.093Z,21.23
2018-02-27T01:41:18.686Z,13.75
2018-02-27T01:43:56.935Z,14.20
2018-02-27T01:46:37.247Z,17.20
2018-02-27T01:49:15.693Z,16.40
2018-02-27T01:51:56.981Z,14.07
2018-02-27T01:54:35.696Z,20.40
2018-02-27T01:57:16.908Z,17.17
2018-02-27T01:59:57.963Z,14.77
2018-02-27T02:02:37.793Z,15.73
2018-02-27T02:05:20.296Z,17.60
2018-02-27T02:07:59.813Z,25.42
2018-02-27T02:10:41.587Z,94.18
2018-02-27T02:13:21.053Z,26.23
2018-02-27T02:16:01.868Z,20.95
2018-02-27T02:18:40.068Z,17.17
2018-02-27T02:21:18.649Z,22.70
2018-02-27T02:23:58.039Z,22.58
2018-02-27T02:26:38.482Z,18.10
2018-02-27T02:29:20.051Z,15.68
2018-02-27T02:31:59.617Z,15.77
2018-02-27T02:34:39.228Z,14.95
2018-02-27T02:37:20.721Z,21.70
2018-02-27T02:40:01.274Z,19.08
2018-02-27T02:42:39.743Z,23.95
2018-02-27T02:45:19.214Z,19.85
2018-02-27T02:47:57.899Z,16.08
2018-02-27T02:50:37.221Z,20.75
2018-02-27T02:53:16.826Z,20.48
2018-02-27T02:55:55.229Z,41.22
2018-02-27T02:58:36.080Z,37.05
2018-02-27T03:01:19.958Z,19.80
2018-02-27T03:04:00.408Z,19.90
2018-02-27T03:06:40.920Z,22.73
2018-02-27T03:09:21.473Z,20.95
2018-02-27T03:12:00.140Z,22.30
2018-02-27T03:14:42.370Z,20.55
2018-02-27T03:17:20.958Z,20.73
2018-02-27T03:20:00.535Z,20.88
2018-02-27T03:22:41.996Z,21.60
2018-02-27T03:25:21.573Z,22.02
2018-02-27T03:28:00.096Z,24.23
2018-02-27T03:30:38.559Z,23.45
2018-02-27T03:33:18.147Z,22.23
2018-02-27T03:35:57.415Z,28.67
2018-02-27T03:38:39.005Z,25.85
2018-02-27T03:41:17.331Z,25.73
2018-02-27T03:43:56.714Z,30.20
2018-02-27T03:46:35.379Z,24.10
2018-02-27T03:49:13.605Z,29.35
2018-02-27T03:51:54.200Z,27.27
2018-02-27T03:54:33.603Z,23.38
2018-02-27T03:57:12.407Z,22.90
2018-02-27T03:59:50.875Z,53.03
2018-02-27T04:02:29.285Z,31.23
2018-02-27T04:05:09.883Z,23.12
2018-02-27T04:07:48.483Z,45.45
2018-02-27T04:10:27.047Z,29.90
2018-02-27T04:13:06.506Z,27.40
2018-02-27T04:15:45.954Z,36.70
2018-02-27T04:18:24.503Z,30.88
2018-02-27T04:21:03.113Z,24.80
2018-02-27T04:23:43.727Z,24.67
2018-02-27T04:26:24.154Z,29.45
2018-02-27T04:29:03.786Z,39.15
2018-02-27T04:31:43.357Z,26.08
2018-02-27T04:34:22.887Z,28.65
2018-02-27T04:37:01.441Z,26.20
2018-02-27T04:39:39.794Z,27.87
2018-02-27T04:42:18.393Z,31.05
2018-02-27T04:44:56.996Z,32.70
2018-02-27T04:47:35.500Z,29.10
2018-02-27T04:50:13.990Z,32.85
2018-02-27T04:52:52.515Z,29.70
2018-02-27T04:55:31.002Z,32.92
2018-02-27T04:58:09.637Z,28.73
2018-02-27T05:00:49.079Z,31.37
2018-02-27T05:03:28.279Z,36.78
2018-02-27T05:06:06.920Z,33.08
2018-02-27T05:08:46.571Z,37.17
2018-02-27T05:11:26.070Z,41.88
2018-02-27T05:14:04.389Z,47.50
2018-02-27T05:16:43.156Z,36.92
2018-02-27T05:19:23.757Z,35.33
2018-02-27T05:22:02.267Z,34.33
2018-02-27T05:24:42.549Z,28.90
2018-02-27T05:27:20.907Z,33.70
2018-02-27T05:30:00.819Z,38.50
2018-02-27T05:32:40.044Z,32.65
2018-02-27T05:35:18.512Z,39.60
2018-02-27T05:37:58.020Z,39.35
2018-02-27T05:40:37.553Z,87.28
2018-02-27T05:43:16.938Z,113.40
2018-02-27T05:45:55.449Z,83.20
2018-02-27T05:48:33.399Z,51.40
2018-02-27T05:51:13.188Z,40.28
2018-02-27T05:53:53.686Z,46.37
2018-02-27T05:56:36.316Z,67.62
2018-02-27T05:59:15.338Z,52.17
2018-02-27T06:01:54.551Z,32.22
2018-02-27T06:04:40.150Z,36.88
2018-02-27T06:07:18.565Z,40.30
2018-02-27T06:09:58.913Z,44.30
2018-02-27T06:12:40.354Z,40.78
2018-02-27T06:15:18.774Z,45.90
2018-02-27T06:17:57.079Z,44.67
2018-02-27T06:20:37.630Z,38.03
2018-02-27T06:23:20.130Z,36.25
2018-02-27T06:25:58.433Z,32.80
2018-02-27T06:28:36.903Z,30.77
2018-02-27T06:31:16.413Z,37.25
2018-02-27T06:33:58.990Z,37.90
2018-02-27T06:36:38.385Z,38.75
2018-02-27T06:39:16.918Z,39.13
2018-02-27T06:41:56.663Z,45.15
2018-02-27T06:44:37.032Z,34.92
2018-02-27T06:47:16.645Z,41.53
2018-02-27T06:49:57.210Z,38.53
2018-02-27T06:52:37.836Z,43.17
2018-02-27T06:55:18.185Z,56.47
2018-02-27T06:58:03.740Z,39.88
2018-02-27T07:00:42.048Z,39.72
2018-02-27T07:03:20.603Z,42.53
2018-02-27T07:06:00.154Z,38.10
2018-02-27T07:08:39.575Z,51.88
2018-02-27T07:11:18.089Z,51.17
2018-02-27T07:13:56.564Z,32.00
2018-02-27T07:16:37.893Z,31.23
2018-02-27T07:19:16.390Z,36.63
2018-02-27T07:21:55.954Z,40.72
2018-02-27T07:24:35.506Z,35.40
2018-02-27T07:27:14.049Z,33.40
2018-02-27T07:29:53.362Z,33.83
2018-02-27T07:32:31.796Z,34.38
2018-02-27T07:35:13.216Z,44.05
2018-02-27T07:37:52.697Z,36.38
2018-02-27T07:40:31.263Z,37.78
2018-02-27T07:43:10.730Z,49.38
2018-02-27T07:45:49.154Z,57.35
2018-02-27T07:48:27.774Z,42.90
2018-02-27T07:51:07.392Z,39.30
2018-02-27T07:53:45.069Z,50.83
2018-02-27T07:56:23.586Z,36.55
2018-02-27T08:05:56.727Z,93.28
2018-02-27T08:08:35.104Z,85.80
2018-02-27T08:11:15.711Z,60.72
2018-02-27T08:13:54.173Z,35.55
2018-02-27T08:16:34.634Z,42.47
2018-02-27T08:19:14.140Z,46.90
2018-02-27T08:21:52.758Z,51.53
2018-02-27T08:24:31.184Z,35.40
2018-02-27T08:27:09.770Z,38.60
2018-02-27T08:29:49.173Z,35.80
2018-02-27T08:32:28.679Z,38.10
2018-02-27T08:35:07.093Z,40.33
2018-02-27T08:37:46.589Z,42.55
2018-02-27T08:40:24.822Z,50.03
2018-02-27T08:43:04.256Z,42.47
2018-02-27T08:45:42.821Z,39.70
2018-02-27T08:48:23.335Z,40.85
2018-02-27T08:51:01.826Z,37.92
2018-02-27T08:53:41.324Z,42.10
2018-02-27T08:56:23.805Z,46.67
2018-02-27T08:59:02.476Z,40.12
2018-02-27T09:01:40.880Z,44.70
2018-02-27T09:04:20.271Z,36.75
2018-02-27T09:06:59.681Z,44.47
2018-02-27T09:09:39.190Z,33.15
2018-02-27T09:12:18.606Z,67.30
2018-02-27T09:14:56.988Z,71.45
2018-02-27T09:17:35.592Z,81.65
2018-02-27T09:20:14.048Z,58.05
2018-02-27T09:22:52.433Z,56.83
2018-02-27T09:25:30.965Z,61.60
2018-02-27T09:28:09.327Z,60.60
2018-02-27T09:30:48.260Z,47.28
2018-02-27T09:33:26.740Z,41.17
2018-02-27T09:36:06.328Z,36.20
2018-02-27T09:38:45.011Z,33.08
2018-02-27T09:41:27.553Z,28.48
2018-02-27T09:44:04.973Z,24.23
2018-02-27T09:46:43.524Z,22.85
2018-02-27T09:49:23.118Z,17.15
2018-02-27T09:52:01.817Z,16.33
2018-02-27T09:54:40.189Z,12.70
2018-02-27T09:57:19.852Z,13.93
2018-02-27T09:59:58.372Z,16.55
2018-02-27T10:02:36.820Z,14.70
2018-02-27T10:05:15.387Z,13.88
2018-02-27T10:07:53.793Z,13.48
2018-02-27T10:10:34.341Z,12.63
2018-02-27T10:13:12.891Z,14.15
2018-02-27T10:15:52.328Z,11.30
2018-02-27T10:18:32.896Z,8.32
2018-02-27T10:21:10.470Z,10.57
2018-02-27T10:23:48.855Z,6.65
2018-02-27T10:26:27.403Z,10.90
2018-02-27T10:29:06.843Z,10.60
2018-02-27T10:31:46.277Z,10.65
2018-02-27T10:34:25.917Z,8.75
2018-02-27T10:37:03.175Z,8.90
2018-02-27T10:39:41.974Z,8.90
2018-02-27T10:42:21.611Z,9.60
2018-02-27T10:44:59.951Z,11.45
2018-02-27T10:47:39.529Z,9.10
2018-02-27T10:50:17.915Z,8.65
2018-02-27T10:52:56.345Z,5.80
2018-02-27T10:55:37.844Z,8.65
2018-02-27T10:58:16.476Z,9.85
2018-02-27T11:01:09.828Z,8.60
2018-02-27T11:03:49.320Z,7.05
2018-02-27T11:06:27.915Z,9.18
2018-02-27T11:09:06.275Z,8.10
2018-02-27T11:11:45.770Z,9.82
2018-02-27T11:14:24.258Z,9.50
2018-02-27T11:17:02.760Z,7.25
2018-02-27T11:19:41.088Z,10.88
2018-02-27T11:22:18.138Z,9.57
2018-02-27T11:24:59.096Z,13.07
2018-02-27T11:27:38.424Z,8.93
2018-02-27T11:30:16.906Z,8.60
2018-02-27T11:32:56.520Z,8.02
2018-02-27T11:35:34.839Z,9.23
2018-02-27T11:38:13.500Z,9.18
2018-02-27T11:40:52.053Z,9.55
2018-02-27T11:43:31.647Z,10.52
2018-02-27T11:46:10.360Z,9.25
2018-02-27T11:48:48.712Z,9.82
2018-02-27T11:51:27.158Z,12.13
2018-02-27T11:54:06.556Z,10.77
2018-02-27T11:56:45.719Z,8.60
2018-02-27T11:59:24.251Z,8.65
2018-02-27T12:02:02.801Z,8.60
2018-02-27T12:04:42.222Z,12.05
2018-02-27T12:07:20.648Z,12.60
2018-02-27T12:09:58.790Z,7.53
2018-02-27T12:12:37.232Z,10.65
2018-02-27T12:15:17.437Z,14.93
2018-02-27T12:17:57.257Z,8.80
2018-02-27T12:20:35.837Z,10.65
2018-02-27T12:23:14.335Z,12.82
2018-02-27T12:25:52.935Z,9.15
2018-02-27T12:28:31.288Z,14.32
2018-02-27T12:31:10.275Z,10.95
2018-02-27T12:33:49.153Z,9.60
2018-02-27T12:36:33.228Z,13.62
2018-02-27T12:39:12.181Z,10.70
2018-02-27T12:41:50.533Z,14.50
2018-02-27T12:44:30.932Z,12.07
2018-02-27T12:47:09.468Z,15.85
2018-02-27T12:49:49.784Z,17.73
2018-02-27T12:52:28.163Z,13.38
2018-02-27T12:55:06.415Z,11.05
2018-02-27T12:57:44.925Z,12.15
2018-02-27T13:00:22.265Z,11.70
2018-02-27T13:03:03.675Z,8.20
2018-02-27T13:05:42.266Z,17.27
2018-02-27T13:08:20.654Z,8.20
2018-02-27T13:10:59.221Z,7.70
2018-02-27T13:13:37.741Z,9.77
2018-02-27T13:16:17.306Z,9.10
2018-02-27T13:18:54.688Z,13.23
2018-02-27T13:21:33.036Z,8.80
2018-02-27T13:24:12.740Z,6.90
2018-02-27T13:26:51.244Z,9.48
2018-02-27T13:29:28.767Z,10.02
2018-02-27T13:32:08.367Z,9.18
2018-02-27T13:34:48.769Z,10.85
2018-02-27T13:37:28.219Z,10.20
2018-02-27T13:40:07.770Z,7.00
2018-02-27T13:42:45.420Z,9.77
2018-02-27T13:45:23.859Z,10.23
2018-02-27T13:48:02.240Z,7.55
2018-02-27T13:50:39.709Z,10.02
2018-02-27T13:53:18.350Z,7.70
2018-02-27T13:55:58.112Z,6.00
2018-02-27T13:58:36.536Z,7.40
2018-02-27T14:01:15.188Z,7.18
2018-02-27T14:03:54.872Z,8.50
2018-02-27T14:06:34.567Z,8.38
2018-02-27T14:09:13.453Z,11.25
2018-02-27T14:11:52.317Z,5.85
2018-02-27T14:14:30.901Z,8.00
2018-02-27T14:17:10.568Z,7.00
2018-02-27T14:19:49.946Z,7.03
2018-02-27T14:22:28.412Z,5.45
2018-02-27T14:25:06.914Z,8.98
2018-02-27T14:27:47.391Z,6.43
2018-02-27T14:30:27.035Z,7.18
2018-02-27T14:33:05.685Z,7.93
2018-02-27T14:35:44.104Z,7.15
2018-02-27T14:38:23.639Z,6.60
2018-02-27T14:41:03.258Z,6.95
2018-02-27T14:43:42.900Z,8.20
2018-02-27T14:46:21.307Z,10.07
2018-02-27T14:48:59.853Z,7.07
2018-02-27T14:51:39.447Z,5.05
2018-02-27T14:54:17.992Z,5.85
2018-02-27T14:56:56.602Z,4.90
2018-02-27T14:59:35.030Z,5.72
2018-02-27T15:02:13.433Z,5.45
2018-02-27T15:04:51.853Z,6.78
2018-02-27T15:07:30.404Z,4.87
2018-02-27T15:10:08.829Z,9.20
2018-02-27T15:12:48.249Z,8.55
2018-02-27T15:15:26.528Z,5.75
2018-02-27T15:18:03.828Z,9.02
2018-02-27T15:20:42.453Z,3.95
2018-02-27T15:23:21.003Z,4.07
2018-02-27T15:25:59.303Z,6.37
2018-02-27T15:28:38.774Z,4.80
2018-02-27T15:31:17.356Z,4.78
2018-02-27T15:33:56.984Z,6.72
2018-02-27T15:36:36.356Z,5.78
2018-02-27T15:39:16.898Z,7.97
2018-02-27T15:41:57.355Z,7.05
2018-02-27T15:44:35.676Z,5.95
2018-02-27T15:47:14.251Z,8.07
2018-02-27T15:49:54.780Z,7.15
2018-02-27T15:52:33.364Z,5.62
2018-02-27T15:55:13.018Z,5.05
2018-02-27T15:57:51.482Z,6.00
2018-02-27T16:00:30.054Z,9.48
2018-02-27T16:03:09.401Z,7.97
2018-02-27T16:05:47.680Z,8.25
2018-02-27T16:08:26.042Z,6.90
2018-02-27T16:11:05.372Z,8.07
2018-02-27T16:13:45.016Z,7.47
2018-02-27T16:16:24.471Z,6.47
2018-02-27T16:19:04.031Z,7.53
2018-02-27T16:21:44.539Z,5.37
2018-02-27T16:24:23.886Z,6.30
2018-02-27T16:27:02.746Z,9.32
2018-02-27T16:29:40.901Z,15.75
2018-02-27T16:32:20.470Z,14.20
2018-02-27T16:34:58.839Z,23.92
2018-02-27T16:37:37.287Z,15.48
2018-02-27T16:40:15.931Z,13.95
2018-02-27T16:42:54.456Z,9.55
2018-02-27T16:45:33.948Z,10.93
2018-02-27T16:48:12.645Z,7.30
2018-02-27T16:50:52.288Z,7.30
2018-02-27T16:53:30.931Z,10.65
2018-02-27T16:56:09.315Z,10.35
2018-02-27T16:58:47.793Z,8.77
2018-02-27T17:01:27.315Z,10.13
2018-02-27T17:04:06.847Z,12.13
2018-02-27T17:06:45.278Z,8.13
2018-02-27T17:09:23.786Z,6.32
2018-02-27T17:12:03.118Z,6.35
2018-02-27T17:14:40.546Z,6.15
2018-02-27T17:17:18.949Z,17.58
2018-02-27T17:19:58.379Z,8.68
2018-02-27T17:22:38.074Z,9.18
2018-02-27T17:25:18.358Z,9.02
2018-02-27T17:27:56.792Z,9.50
2018-02-27T17:30:36.367Z,5.62
2018-02-27T17:33:16.698Z,6.53
2018-02-27T17:35:56.075Z,5.65
2018-02-27T17:38:35.424Z,4.15
2018-02-27T17:41:13.872Z,4.75
2018-02-27T17:43:51.248Z,3.03
2018-02-27T17:46:29.673Z,4.10
2018-02-27T17:49:09.204Z,5.32
2018-02-27T17:51:48.841Z,3.33
2018-02-27T17:54:28.304Z,4.32
2018-02-27T17:57:06.711Z,6.03
2018-02-27T17:59:45.181Z,6.03
2018-02-27T18:02:22.595Z,5.10
2018-02-27T18:05:01.080Z,5.97
2018-02-27T18:07:39.700Z,4.80
2018-02-27T18:10:18.163Z,7.62
2018-02-27T18:12:56.530Z,7.00
2018-02-27T18:15:36.008Z,12.60
2018-02-27T18:18:14.451Z,7.00
2018-02-27T18:20:53.958Z,9.82
2018-02-27T18:23:34.455Z,5.18
2018-02-27T18:26:13.181Z,9.55
2018-02-27T18:28:52.066Z,7.12
2018-02-27T18:31:30.316Z,9.52
2018-02-27T18:34:08.782Z,6.05
2018-02-27T18:36:48.224Z,4.12
2018-02-27T18:39:26.861Z,3.62
2018-02-27T18:42:05.169Z,4.07
2018-02-27T18:44:43.503Z,4.43
2018-02-27T18:47:20.469Z,10.07
2018-02-27T18:50:02.153Z,4.43
2018-02-27T18:52:41.745Z,3.85
2018-02-27T18:55:20.339Z,6.30
2018-02-27T18:57:59.912Z,7.70
2018-02-27T19:00:39.413Z,5.12
2018-02-27T19:03:17.880Z,5.75
2018-02-27T19:05:57.324Z,4.68
2018-02-27T19:08:35.921Z,4.85
2018-02-27T19:11:14.453Z,5.32
2018-02-27T19:13:53.768Z,8.07
2018-02-27T19:16:33.449Z,4.87
2018-02-27T19:19:11.812Z,6.72
2018-02-27T19:21:50.137Z,3.55
2018-02-27T19:24:28.574Z,7.43
2018-02-27T19:27:06.786Z,4.93
2018-02-27T19:29:45.245Z,5.00
2018-02-27T19:32:23.712Z,6.28
2018-02-27T19:35:02.165Z,4.15
2018-02-27T19:37:41.104Z,4.55
2018-02-27T19:40:20.033Z,6.15
2018-02-27T19:42:58.398Z,7.47
2018-02-27T19:45:36.834Z,7.28
2018-02-27T19:48:15.236Z,5.18
2018-02-27T19:50:56.730Z,7.80
2018-02-27T19:53:35.107Z,5.00
2018-02-27T19:56:14.669Z,6.70
2018-02-27T19:58:54.337Z,3.17
2018-02-27T20:01:33.818Z,5.12
2018-02-27T20:04:12.199Z,4.12
2018-02-27T20:06:50.658Z,6.35
2018-02-27T20:09:29.191Z,5.15
2018-02-27T20:12:07.614Z,6.90
2018-02-27T20:14:46.175Z,3.33
2018-02-27T20:17:25.772Z,6.90
2018-02-27T20:20:04.455Z,5.18
2018-02-27T20:22:48.874Z,5.90
2018-02-27T20:25:27.372Z,4.32
2018-02-27T20:28:05.749Z,2.97
2018-02-27T20:30:46.282Z,6.43
2018-02-27T20:33:25.709Z,4.03
2018-02-27T20:36:04.059Z,3.75
2018-02-27T20:38:48.427Z,3.17
2018-02-27T20:41:27.011Z,3.42
2018-02-27T20:44:05.491Z,5.55
2018-02-27T20:46:44.086Z,3.70
2018-02-27T20:49:22.459Z,3.70
2018-02-27T20:52:00.992Z,3.15
2018-02-27T20:54:39.437Z,3.53
2018-02-27T20:57:18.633Z,3.50
2018-02-27T20:59:57.306Z,2.60
2018-02-27T21:02:36.764Z,4.53
2018-02-27T21:05:15.372Z,8.20
2018-02-27T21:07:54.697Z,2.87
2018-02-27T21:10:34.118Z,3.50
2018-02-27T21:13:12.554Z,5.00
2018-02-27T21:15:52.998Z,4.70
2018-02-27T21:18:31.407Z,3.50
2018-02-27T21:21:09.978Z,2.77
2018-02-27T21:23:50.283Z,6.20
2018-02-27T21:26:29.107Z,6.57
2018-02-27T21:29:07.790Z,5.33
2018-02-27T21:31:46.897Z,2.90
2018-02-27T21:34:25.089Z,5.50
2018-02-27T21:37:04.136Z,6.13
2018-02-27T21:39:43.900Z,4.80
2018-02-27T21:42:22.328Z,4.27
2018-02-27T21:45:00.784Z,2.33
2018-02-27T21:47:40.226Z,4.80
2018-02-27T21:50:17.802Z,5.27
2018-02-27T21:52:58.457Z,5.50
2018-02-27T21:55:37.607Z,10.97
2018-02-27T21:58:16.226Z,9.20
2018-02-27T22:00:56.768Z,13.67
2018-02-27T22:03:36.247Z,7.67
2018-02-27T22:06:14.761Z,6.40
2018-02-27T22:08:53.304Z,4.60
2018-02-27T22:11:34.577Z,7.97
2018-02-27T22:14:13.011Z,3.97
2018-02-27T22:16:52.534Z,5.20
2018-02-27T22:19:35.604Z,4.10
2018-02-27T22:22:15.576Z,3.13
2018-02-27T22:24:54.124Z,3.40
2018-02-27T22:27:33.681Z,4.83
2018-02-27T22:30:12.215Z,8.27
2018-02-27T22:32:50.748Z,8.63
2018-02-27T22:35:30.275Z,5.50
2018-02-27T22:38:09.740Z,4.67
2018-02-27T22:40:48.346Z,4.83
2018-02-27T22:43:30.707Z,4.77
2018-02-27T22:46:09.501Z,3.27
2018-02-27T22:48:47.798Z,6.47
2018-02-27T22:51:27.307Z,3.30
2018-02-27T22:54:06.899Z,6.00
2018-02-27T22:56:45.692Z,3.13
2018-02-27T22:59:24.819Z,7.43
2018-02-27T23:02:04.053Z,3.63
2018-02-27T23:04:44.372Z,4.20
2018-02-27T23:07:22.920Z,6.03
2018-02-27T23:10:02.391Z,6.67
2018-02-27T23:12:40.854Z,4.07
2018-02-27T23:15:20.974Z,7.93
2018-02-27T23:18:02.942Z,5.13
2018-02-27T23:20:41.542Z,6.13
2018-02-27T23:23:19.839Z,8.10
2018-02-27T23:26:02.321Z,10.13
2018-02-27T23:28:42.731Z,5.03
2018-02-27T23:31:25.218Z,4.03
2018-02-27T23:34:08.752Z,3.58
2018-02-27T23:36:48.131Z,5.22
2018-02-27T23:39:27.624Z,19.27
2018-02-27T23:42:07.998Z,6.27
2018-02-27T23:44:47.612Z,8.68
2018-02-27T23:47:26.897Z,4.30
2018-02-27T23:50:05.441Z,7.43
2018-02-27T23:52:45.009Z,5.10
2018-02-27T23:55:24.660Z,3.92
2018-02-27T23:58:03.129Z,8.67
